sensor_id;sensor_type;location;lat;lon;timestamp;P1;durP1;ratioP1;P2;durP2;ratioP2
39454;SDS011;25155;41.890;23.446;2023-06-10T00:02:13;5.95;;;4.40;;
39454;SDS011;25155;41.890;23.446;2023-06-10T00:04:43;5.38;;;3.70;;
39454;SDS011;25155;41.890;23.446;2023-06-10T00:07:11;5.20;;;4.13;;
39454;SDS011;25155;41.890;23.446;2023-06-10T00:09:38;6.15;;;4.65;;
39454;SDS011;25155;41.890;23.446;2023-06-10T00:12:06;6.53;;;4.90;;
39454;SDS011;25155;41.890;23.446;2023-06-10T00:14:36;7.25;;;4.40;;
39454;SDS011;25155;41.890;23.446;2023-06-10T00:17:05;6.05;;;4.55;;
39454;SDS011;25155;41.890;23.446;2023-06-10T00:19:35;6.18;;;4.60;;
39454;SDS011;25155;41.890;23.446;2023-06-10T00:22:05;5.18;;;4.20;;
39454;SDS011;25155;41.890;23.446;2023-06-10T00:24:36;5.35;;;4.00;;
39454;SDS011;25155;41.890;23.446;2023-06-10T00:27:03;6.17;;;4.40;;
39454;SDS011;25155;41.890;23.446;2023-06-10T00:29:32;5.43;;;3.88;;
39454;SDS011;25155;41.890;23.446;2023-06-10T00:31:59;5.75;;;4.72;;
39454;SDS011;25155;41.890;23.446;2023-06-10T00:34:27;5.88;;;4.40;;
39454;SDS011;25155;41.890;23.446;2023-06-10T00:36:54;6.93;;;5.43;;
39454;SDS011;25155;41.890;23.446;2023-06-10T00:39:22;6.03;;;5.00;;
39454;SDS011;25155;41.890;23.446;2023-06-10T00:41:50;5.40;;;4.00;;
39454;SDS011;25155;41.890;23.446;2023-06-10T00:44:17;5.57;;;4.65;;
39454;SDS011;25155;41.890;23.446;2023-06-10T00:46:44;4.80;;;3.90;;
39454;SDS011;25155;41.890;23.446;2023-06-10T00:49:12;5.00;;;4.05;;
39454;SDS011;25155;41.890;23.446;2023-06-10T00:51:40;4.78;;;3.50;;
39454;SDS011;25155;41.890;23.446;2023-06-10T00:54:07;6.35;;;4.50;;
39454;SDS011;25155;41.890;23.446;2023-06-10T00:56:36;5.35;;;4.28;;
39454;SDS011;25155;41.890;23.446;2023-06-10T00:59:03;5.75;;;4.85;;
39454;SDS011;25155;41.890;23.446;2023-06-10T01:01:31;6.15;;;4.30;;
39454;SDS011;25155;41.890;23.446;2023-06-10T01:03:59;5.20;;;4.30;;
39454;SDS011;25155;41.890;23.446;2023-06-10T01:06:28;5.50;;;4.45;;
39454;SDS011;25155;41.890;23.446;2023-06-10T01:09:04;6.68;;;4.13;;
39454;SDS011;25155;41.890;23.446;2023-06-10T01:11:40;6.18;;;5.00;;
39454;SDS011;25155;41.890;23.446;2023-06-10T01:14:13;6.03;;;4.53;;
39454;SDS011;25155;41.890;23.446;2023-06-10T01:16:40;5.30;;;4.43;;
39454;SDS011;25155;41.890;23.446;2023-06-10T01:19:08;4.70;;;3.70;;
39454;SDS011;25155;41.890;23.446;2023-06-10T01:21:39;5.05;;;3.40;;
39454;SDS011;25155;41.890;23.446;2023-06-10T01:24:07;4.50;;;3.30;;
39454;SDS011;25155;41.890;23.446;2023-06-10T01:26:36;4.30;;;3.53;;
39454;SDS011;25155;41.890;23.446;2023-06-10T01:29:05;4.00;;;3.22;;
39454;SDS011;25155;41.890;23.446;2023-06-10T01:31:38;4.40;;;3.42;;
39454;SDS011;25155;41.890;23.446;2023-06-10T01:34:12;8.00;;;5.13;;
39454;SDS011;25155;41.890;23.446;2023-06-10T01:36:43;6.68;;;4.32;;
39454;SDS011;25155;41.890;23.446;2023-06-10T01:39:14;4.90;;;3.75;;
39454;SDS011;25155;41.890;23.446;2023-06-10T01:41:43;5.20;;;3.58;;
39454;SDS011;25155;41.890;23.446;2023-06-10T01:44:11;4.65;;;3.50;;
39454;SDS011;25155;41.890;23.446;2023-06-10T01:46:43;5.13;;;3.83;;
39454;SDS011;25155;41.890;23.446;2023-06-10T01:49:12;4.57;;;3.70;;
39454;SDS011;25155;41.890;23.446;2023-06-10T01:51:39;4.30;;;3.35;;
39454;SDS011;25155;41.890;23.446;2023-06-10T01:54:08;4.97;;;3.97;;
39454;SDS011;25155;41.890;23.446;2023-06-10T01:56:35;5.85;;;4.50;;
39454;SDS011;25155;41.890;23.446;2023-06-10T01:59:03;6.70;;;4.90;;
39454;SDS011;25155;41.890;23.446;2023-06-10T02:01:30;8.75;;;5.65;;
39454;SDS011;25155;41.890;23.446;2023-06-10T02:03:58;6.00;;;4.82;;
39454;SDS011;25155;41.890;23.446;2023-06-10T02:06:25;6.75;;;6.00;;
39454;SDS011;25155;41.890;23.446;2023-06-10T02:08:53;8.48;;;6.38;;
39454;SDS011;25155;41.890;23.446;2023-06-10T02:11:21;6.80;;;5.28;;
39454;SDS011;25155;41.890;23.446;2023-06-10T02:13:49;6.75;;;5.38;;
39454;SDS011;25155;41.890;23.446;2023-06-10T02:16:16;5.90;;;4.47;;
39454;SDS011;25155;41.890;23.446;2023-06-10T02:18:44;7.93;;;4.35;;
39454;SDS011;25155;41.890;23.446;2023-06-10T02:21:11;5.10;;;4.07;;
39454;SDS011;25155;41.890;23.446;2023-06-10T02:23:38;5.55;;;4.18;;
39454;SDS011;25155;41.890;23.446;2023-06-10T02:26:06;5.40;;;4.32;;
39454;SDS011;25155;41.890;23.446;2023-06-10T02:28:35;4.97;;;4.07;;
39454;SDS011;25155;41.890;23.446;2023-06-10T02:31:02;5.22;;;4.18;;
39454;SDS011;25155;41.890;23.446;2023-06-10T02:33:29;5.07;;;4.05;;
39454;SDS011;25155;41.890;23.446;2023-06-10T02:35:56;5.25;;;4.32;;
39454;SDS011;25155;41.890;23.446;2023-06-10T02:38:24;5.25;;;3.70;;
39454;SDS011;25155;41.890;23.446;2023-06-10T02:40:51;4.25;;;3.35;;
39454;SDS011;25155;41.890;23.446;2023-06-10T02:43:18;4.30;;;3.13;;
39454;SDS011;25155;41.890;23.446;2023-06-10T02:45:46;4.75;;;3.58;;
39454;SDS011;25155;41.890;23.446;2023-06-10T02:48:14;4.60;;;3.60;;
39454;SDS011;25155;41.890;23.446;2023-06-10T02:50:41;4.60;;;3.78;;
39454;SDS011;25155;41.890;23.446;2023-06-10T02:53:08;5.32;;;4.15;;
39454;SDS011;25155;41.890;23.446;2023-06-10T02:55:35;4.45;;;3.67;;
39454;SDS011;25155;41.890;23.446;2023-06-10T02:58:03;4.78;;;3.72;;
39454;SDS011;25155;41.890;23.446;2023-06-10T03:00:31;4.78;;;3.83;;
39454;SDS011;25155;41.890;23.446;2023-06-10T03:02:59;6.20;;;4.97;;
39454;SDS011;25155;41.890;23.446;2023-06-10T03:05:28;6.38;;;4.32;;
39454;SDS011;25155;41.890;23.446;2023-06-10T03:07:56;4.97;;;4.03;;
39454;SDS011;25155;41.890;23.446;2023-06-10T03:10:23;6.22;;;5.28;;
39454;SDS011;25155;41.890;23.446;2023-06-10T03:12:52;5.97;;;4.70;;
39454;SDS011;25155;41.890;23.446;2023-06-10T03:15:19;6.45;;;5.20;;
39454;SDS011;25155;41.890;23.446;2023-06-10T03:17:47;5.38;;;4.30;;
39454;SDS011;25155;41.890;23.446;2023-06-10T03:20:15;5.93;;;4.65;;
39454;SDS011;25155;41.890;23.446;2023-06-10T03:22:43;5.25;;;4.25;;
39454;SDS011;25155;41.890;23.446;2023-06-10T03:25:10;5.47;;;4.30;;
39454;SDS011;25155;41.890;23.446;2023-06-10T03:27:39;5.38;;;4.47;;
39454;SDS011;25155;41.890;23.446;2023-06-10T03:30:06;4.75;;;3.90;;
39454;SDS011;25155;41.890;23.446;2023-06-10T03:32:34;5.55;;;4.28;;
39454;SDS011;25155;41.890;23.446;2023-06-10T03:35:02;6.35;;;5.32;;
39454;SDS011;25155;41.890;23.446;2023-06-10T03:37:31;6.35;;;5.43;;
39454;SDS011;25155;41.890;23.446;2023-06-10T03:39:58;5.30;;;4.38;;
39454;SDS011;25155;41.890;23.446;2023-06-10T03:42:25;7.72;;;6.38;;
39454;SDS011;25155;41.890;23.446;2023-06-10T03:44:52;6.38;;;5.40;;
39454;SDS011;25155;41.890;23.446;2023-06-10T03:47:20;5.65;;;4.65;;
39454;SDS011;25155;41.890;23.446;2023-06-10T03:49:47;5.57;;;4.28;;
39454;SDS011;25155;41.890;23.446;2023-06-10T03:52:14;4.40;;;3.70;;
39454;SDS011;25155;41.890;23.446;2023-06-10T03:54:43;5.75;;;3.90;;
39454;SDS011;25155;41.890;23.446;2023-06-10T03:57:10;4.53;;;3.65;;
39454;SDS011;25155;41.890;23.446;2023-06-10T03:59:38;4.72;;;3.70;;
39454;SDS011;25155;41.890;23.446;2023-06-10T04:02:05;4.47;;;3.65;;
39454;SDS011;25155;41.890;23.446;2023-06-10T04:04:34;4.70;;;3.50;;
39454;SDS011;25155;41.890;23.446;2023-06-10T04:07:02;4.90;;;3.80;;
39454;SDS011;25155;41.890;23.446;2023-06-10T04:09:30;4.63;;;3.88;;
39454;SDS011;25155;41.890;23.446;2023-06-10T04:11:59;4.75;;;3.58;;
39454;SDS011;25155;41.890;23.446;2023-06-10T04:14:26;7.68;;;4.78;;
39454;SDS011;25155;41.890;23.446;2023-06-10T04:16:54;9.18;;;6.00;;
39454;SDS011;25155;41.890;23.446;2023-06-10T04:19:21;6.80;;;5.75;;
39454;SDS011;25155;41.890;23.446;2023-06-10T04:21:48;6.15;;;5.22;;
39454;SDS011;25155;41.890;23.446;2023-06-10T04:24:15;6.20;;;5.32;;
39454;SDS011;25155;41.890;23.446;2023-06-10T04:26:43;7.95;;;5.20;;
39454;SDS011;25155;41.890;23.446;2023-06-10T04:29:12;6.68;;;5.97;;
39454;SDS011;25155;41.890;23.446;2023-06-10T04:31:39;7.15;;;6.13;;
39454;SDS011;25155;41.890;23.446;2023-06-10T04:34:06;8.20;;;7.30;;
39454;SDS011;25155;41.890;23.446;2023-06-10T04:36:33;8.63;;;7.47;;
39454;SDS011;25155;41.890;23.446;2023-06-10T04:39:00;9.93;;;8.30;;
39454;SDS011;25155;41.890;23.446;2023-06-10T04:41:28;9.60;;;7.63;;
39454;SDS011;25155;41.890;23.446;2023-06-10T04:43:55;8.70;;;7.80;;
39454;SDS011;25155;41.890;23.446;2023-06-10T04:46:24;8.60;;;7.03;;
39454;SDS011;25155;41.890;23.446;2023-06-10T04:48:51;9.00;;;7.60;;
39454;SDS011;25155;41.890;23.446;2023-06-10T04:51:20;7.90;;;7.07;;
39454;SDS011;25155;41.890;23.446;2023-06-10T04:53:47;8.45;;;7.32;;
39454;SDS011;25155;41.890;23.446;2023-06-10T04:56:17;6.70;;;6.00;;
39454;SDS011;25155;41.890;23.446;2023-06-10T04:58:45;9.68;;;7.97;;
39454;SDS011;25155;41.890;23.446;2023-06-10T05:01:12;7.82;;;7.00;;
39454;SDS011;25155;41.890;23.446;2023-06-10T05:03:41;8.18;;;6.85;;
39454;SDS011;25155;41.890;23.446;2023-06-10T05:06:08;8.57;;;5.90;;
39454;SDS011;25155;41.890;23.446;2023-06-10T05:08:35;6.70;;;5.25;;
39454;SDS011;25155;41.890;23.446;2023-06-10T05:11:03;8.38;;;6.78;;
39454;SDS011;25155;41.890;23.446;2023-06-10T05:13:30;7.95;;;6.68;;
39454;SDS011;25155;41.890;23.446;2023-06-10T05:15:57;7.07;;;6.22;;
39454;SDS011;25155;41.890;23.446;2023-06-10T05:18:25;8.25;;;7.25;;
39454;SDS011;25155;41.890;23.446;2023-06-10T05:20:53;9.23;;;7.13;;
39454;SDS011;25155;41.890;23.446;2023-06-10T05:23:21;8.15;;;6.88;;
39454;SDS011;25155;41.890;23.446;2023-06-10T05:25:48;7.43;;;6.35;;
39454;SDS011;25155;41.890;23.446;2023-06-10T05:28:15;7.75;;;6.35;;
39454;SDS011;25155;41.890;23.446;2023-06-10T05:30:43;7.85;;;5.80;;
39454;SDS011;25155;41.890;23.446;2023-06-10T05:33:11;7.63;;;6.05;;
39454;SDS011;25155;41.890;23.446;2023-06-10T05:35:38;8.15;;;6.00;;
39454;SDS011;25155;41.890;23.446;2023-06-10T05:38:07;6.97;;;5.40;;
39454;SDS011;25155;41.890;23.446;2023-06-10T05:40:35;6.68;;;5.20;;
39454;SDS011;25155;41.890;23.446;2023-06-10T05:43:02;6.90;;;4.72;;
39454;SDS011;25155;41.890;23.446;2023-06-10T05:45:30;7.60;;;6.07;;
39454;SDS011;25155;41.890;23.446;2023-06-10T05:47:57;7.18;;;5.72;;
39454;SDS011;25155;41.890;23.446;2023-06-10T05:50:24;6.43;;;5.18;;
39454;SDS011;25155;41.890;23.446;2023-06-10T05:52:51;7.95;;;5.55;;
39454;SDS011;25155;41.890;23.446;2023-06-10T05:55:21;6.55;;;5.18;;
39454;SDS011;25155;41.890;23.446;2023-06-10T05:57:48;6.38;;;4.85;;
39454;SDS011;25155;41.890;23.446;2023-06-10T06:00:25;6.30;;;4.90;;
39454;SDS011;25155;41.890;23.446;2023-06-10T06:02:53;7.40;;;5.20;;
39454;SDS011;25155;41.890;23.446;2023-06-10T06:05:22;5.85;;;4.95;;
39454;SDS011;25155;41.890;23.446;2023-06-10T06:07:49;6.70;;;5.28;;
39454;SDS011;25155;41.890;23.446;2023-06-10T06:10:17;7.30;;;5.68;;
39454;SDS011;25155;41.890;23.446;2023-06-10T06:12:46;7.65;;;5.65;;
39454;SDS011;25155;41.890;23.446;2023-06-10T06:15:14;6.68;;;5.32;;
39454;SDS011;25155;41.890;23.446;2023-06-10T06:17:41;6.70;;;5.07;;
39454;SDS011;25155;41.890;23.446;2023-06-10T06:20:09;6.53;;;5.00;;
39454;SDS011;25155;41.890;23.446;2023-06-10T06:22:36;6.72;;;5.60;;
39454;SDS011;25155;41.890;23.446;2023-06-10T06:25:04;8.88;;;5.20;;
39454;SDS011;25155;41.890;23.446;2023-06-10T06:27:32;6.70;;;5.00;;
39454;SDS011;25155;41.890;23.446;2023-06-10T06:30:00;6.03;;;4.97;;
39454;SDS011;25155;41.890;23.446;2023-06-10T06:32:27;6.43;;;5.05;;
39454;SDS011;25155;41.890;23.446;2023-06-10T06:34:55;6.80;;;4.95;;
39454;SDS011;25155;41.890;23.446;2023-06-10T06:37:22;5.95;;;4.60;;
39454;SDS011;25155;41.890;23.446;2023-06-10T06:39:51;6.88;;;4.50;;
39454;SDS011;25155;41.890;23.446;2023-06-10T06:42:18;5.28;;;4.40;;
39454;SDS011;25155;41.890;23.446;2023-06-10T06:44:46;6.10;;;4.28;;
39454;SDS011;25155;41.890;23.446;2023-06-10T06:47:15;5.65;;;4.07;;
39454;SDS011;25155;41.890;23.446;2023-06-10T06:49:45;4.70;;;3.67;;
39454;SDS011;25155;41.890;23.446;2023-06-10T06:52:12;7.10;;;5.18;;
39454;SDS011;25155;41.890;23.446;2023-06-10T06:54:40;6.25;;;4.70;;
39454;SDS011;25155;41.890;23.446;2023-06-10T06:57:07;5.38;;;4.38;;
39454;SDS011;25155;41.890;23.446;2023-06-10T06:59:34;6.25;;;4.95;;
39454;SDS011;25155;41.890;23.446;2023-06-10T07:02:02;6.22;;;5.18;;
39454;SDS011;25155;41.890;23.446;2023-06-10T07:04:31;7.05;;;4.95;;
39454;SDS011;25155;41.890;23.446;2023-06-10T07:06:58;5.65;;;4.30;;
39454;SDS011;25155;41.890;23.446;2023-06-10T07:09:25;7.10;;;4.30;;
39454;SDS011;25155;41.890;23.446;2023-06-10T07:11:53;7.45;;;5.18;;
39454;SDS011;25155;41.890;23.446;2023-06-10T07:14:20;7.13;;;5.10;;
39454;SDS011;25155;41.890;23.446;2023-06-10T07:16:48;9.35;;;5.20;;
39454;SDS011;25155;41.890;23.446;2023-06-10T07:19:15;5.93;;;4.65;;
39454;SDS011;25155;41.890;23.446;2023-06-10T07:21:43;4.82;;;3.70;;
39454;SDS011;25155;41.890;23.446;2023-06-10T07:24:11;6.90;;;4.75;;
39454;SDS011;25155;41.890;23.446;2023-06-10T07:26:38;6.18;;;4.90;;
39454;SDS011;25155;41.890;23.446;2023-06-10T07:29:05;6.68;;;5.03;;
39454;SDS011;25155;41.890;23.446;2023-06-10T07:31:32;6.97;;;5.10;;
39454;SDS011;25155;41.890;23.446;2023-06-10T07:33:59;6.65;;;4.75;;
39454;SDS011;25155;41.890;23.446;2023-06-10T07:36:27;5.90;;;4.50;;
39454;SDS011;25155;41.890;23.446;2023-06-10T07:38:56;6.45;;;4.75;;
39454;SDS011;25155;41.890;23.446;2023-06-10T07:41:23;5.40;;;4.32;;
39454;SDS011;25155;41.890;23.446;2023-06-10T07:43:52;7.68;;;4.65;;
39454;SDS011;25155;41.890;23.446;2023-06-10T07:46:20;7.43;;;4.82;;
39454;SDS011;25155;41.890;23.446;2023-06-10T07:48:47;6.65;;;4.20;;
39454;SDS011;25155;41.890;23.446;2023-06-10T07:51:15;4.65;;;3.65;;
39454;SDS011;25155;41.890;23.446;2023-06-10T07:53:43;5.10;;;3.72;;
39454;SDS011;25155;41.890;23.446;2023-06-10T07:56:14;5.82;;;3.97;;
39454;SDS011;25155;41.890;23.446;2023-06-10T07:58:41;5.38;;;3.90;;
39454;SDS011;25155;41.890;23.446;2023-06-10T08:01:08;5.35;;;4.28;;
39454;SDS011;25155;41.890;23.446;2023-06-10T08:03:36;5.28;;;3.58;;
39454;SDS011;25155;41.890;23.446;2023-06-10T08:06:03;5.65;;;4.15;;
39454;SDS011;25155;41.890;23.446;2023-06-10T08:08:30;5.32;;;3.63;;
39454;SDS011;25155;41.890;23.446;2023-06-10T08:10:58;5.65;;;3.85;;
39454;SDS011;25155;41.890;23.446;2023-06-10T08:13:26;6.18;;;3.78;;
39454;SDS011;25155;41.890;23.446;2023-06-10T08:15:54;5.25;;;3.60;;
39454;SDS011;25155;41.890;23.446;2023-06-10T08:18:21;5.03;;;3.60;;
39454;SDS011;25155;41.890;23.446;2023-06-10T08:20:49;6.10;;;3.60;;
39454;SDS011;25155;41.890;23.446;2023-06-10T08:23:16;5.93;;;3.85;;
39454;SDS011;25155;41.890;23.446;2023-06-10T08:25:45;4.90;;;3.97;;
39454;SDS011;25155;41.890;23.446;2023-06-10T08:28:12;5.10;;;3.80;;
39454;SDS011;25155;41.890;23.446;2023-06-10T08:30:41;4.90;;;3.72;;
39454;SDS011;25155;41.890;23.446;2023-06-10T08:33:08;5.05;;;4.15;;
39454;SDS011;25155;41.890;23.446;2023-06-10T08:35:35;5.63;;;4.10;;
39454;SDS011;25155;41.890;23.446;2023-06-10T08:38:02;5.38;;;4.05;;
39454;SDS011;25155;41.890;23.446;2023-06-10T08:40:29;5.50;;;3.63;;
39454;SDS011;25155;41.890;23.446;2023-06-10T08:42:59;5.55;;;4.30;;
39454;SDS011;25155;41.890;23.446;2023-06-10T08:45:34;6.50;;;4.22;;
39454;SDS011;25155;41.890;23.446;2023-06-10T08:48:05;5.13;;;3.90;;
39454;SDS011;25155;41.890;23.446;2023-06-10T08:50:34;5.47;;;4.07;;
39454;SDS011;25155;41.890;23.446;2023-06-10T08:53:04;4.88;;;3.60;;
39454;SDS011;25155;41.890;23.446;2023-06-10T08:55:33;4.63;;;3.45;;
39454;SDS011;25155;41.890;23.446;2023-06-10T08:58:03;4.60;;;3.70;;
39454;SDS011;25155;41.890;23.446;2023-06-10T09:00:30;5.53;;;4.43;;
39454;SDS011;25155;41.890;23.446;2023-06-10T09:02:58;4.88;;;4.07;;
39454;SDS011;25155;41.890;23.446;2023-06-10T09:05:28;5.72;;;4.32;;
39454;SDS011;25155;41.890;23.446;2023-06-10T09:07:57;6.28;;;4.03;;
39454;SDS011;25155;41.890;23.446;2023-06-10T09:10:25;5.85;;;4.50;;
39454;SDS011;25155;41.890;23.446;2023-06-10T09:12:53;5.40;;;3.95;;
39454;SDS011;25155;41.890;23.446;2023-06-10T09:15:21;4.93;;;3.88;;
39454;SDS011;25155;41.890;23.446;2023-06-10T09:17:48;4.72;;;3.90;;
39454;SDS011;25155;41.890;23.446;2023-06-10T09:20:16;5.28;;;3.58;;
39454;SDS011;25155;41.890;23.446;2023-06-10T09:22:46;4.00;;;2.78;;
39454;SDS011;25155;41.890;23.446;2023-06-10T09:25:14;4.95;;;3.35;;
39454;SDS011;25155;41.890;23.446;2023-06-10T09:27:45;4.85;;;3.67;;
39454;SDS011;25155;41.890;23.446;2023-06-10T09:30:24;4.78;;;3.63;;
39454;SDS011;25155;41.890;23.446;2023-06-10T09:32:53;4.18;;;3.10;;
39454;SDS011;25155;41.890;23.446;2023-06-10T09:35:22;4.50;;;3.38;;
39454;SDS011;25155;41.890;23.446;2023-06-10T09:37:51;4.40;;;3.10;;
39454;SDS011;25155;41.890;23.446;2023-06-10T09:40:19;6.05;;;3.30;;
39454;SDS011;25155;41.890;23.446;2023-06-10T09:42:47;4.95;;;3.58;;
39454;SDS011;25155;41.890;23.446;2023-06-10T09:45:20;8.80;;;3.22;;
39454;SDS011;25155;41.890;23.446;2023-06-10T09:47:51;5.70;;;4.00;;
39454;SDS011;25155;41.890;23.446;2023-06-10T09:50:21;5.00;;;3.45;;
39454;SDS011;25155;41.890;23.446;2023-06-10T09:52:49;5.93;;;3.58;;
39454;SDS011;25155;41.890;23.446;2023-06-10T09:55:19;4.63;;;3.60;;
39454;SDS011;25155;41.890;23.446;2023-06-10T09:57:48;5.60;;;3.80;;
39454;SDS011;25155;41.890;23.446;2023-06-10T10:00:21;5.72;;;3.53;;
39454;SDS011;25155;41.890;23.446;2023-06-10T10:02:51;5.50;;;3.80;;
39454;SDS011;25155;41.890;23.446;2023-06-10T10:05:20;4.63;;;3.70;;
39454;SDS011;25155;41.890;23.446;2023-06-10T10:07:48;4.85;;;3.83;;
39454;SDS011;25155;41.890;23.446;2023-06-10T10:10:17;5.40;;;3.58;;
39454;SDS011;25155;41.890;23.446;2023-06-10T10:12:47;4.53;;;3.38;;
39454;SDS011;25155;41.890;23.446;2023-06-10T10:15:16;4.55;;;3.63;;
39454;SDS011;25155;41.890;23.446;2023-06-10T10:17:45;3.80;;;3.00;;
39454;SDS011;25155;41.890;23.446;2023-06-10T10:20:20;4.00;;;2.90;;
39454;SDS011;25155;41.890;23.446;2023-06-10T10:22:53;5.13;;;3.60;;
39454;SDS011;25155;41.890;23.446;2023-06-10T10:25:25;4.18;;;3.10;;
39454;SDS011;25155;41.890;23.446;2023-06-10T10:27:56;5.38;;;3.95;;
39454;SDS011;25155;41.890;23.446;2023-06-10T10:30:26;7.30;;;3.88;;
39454;SDS011;25155;41.890;23.446;2023-06-10T10:32:56;4.22;;;3.30;;
39454;SDS011;25155;41.890;23.446;2023-06-10T10:37:54;5.47;;;3.50;;
39454;SDS011;25155;41.890;23.446;2023-06-10T10:40:22;8.68;;;4.32;;
39454;SDS011;25155;41.890;23.446;2023-06-10T10:42:51;5.75;;;4.10;;
39454;SDS011;25155;41.890;23.446;2023-06-10T10:45:22;5.53;;;3.67;;
39454;SDS011;25155;41.890;23.446;2023-06-10T10:47:51;4.90;;;3.55;;
39454;SDS011;25155;41.890;23.446;2023-06-10T10:50:20;4.70;;;3.13;;
39454;SDS011;25155;41.890;23.446;2023-06-10T10:52:51;3.80;;;2.72;;
39454;SDS011;25155;41.890;23.446;2023-06-10T10:55:21;5.38;;;3.80;;
39454;SDS011;25155;41.890;23.446;2023-06-10T10:57:57;4.38;;;3.00;;
39454;SDS011;25155;41.890;23.446;2023-06-10T11:00:28;4.65;;;3.20;;
39454;SDS011;25155;41.890;23.446;2023-06-10T11:05:31;4.72;;;3.50;;
39454;SDS011;25155;41.890;23.446;2023-06-10T11:08:03;5.65;;;3.50;;
39454;SDS011;25155;41.890;23.446;2023-06-10T11:10:31;4.30;;;2.97;;
39454;SDS011;25155;41.890;23.446;2023-06-10T11:13:00;4.70;;;3.42;;
39454;SDS011;25155;41.890;23.446;2023-06-10T11:15:32;4.00;;;2.70;;
39454;SDS011;25155;41.890;23.446;2023-06-10T11:20:51;3.80;;;2.90;;
39454;SDS011;25155;41.890;23.446;2023-06-10T11:26:20;4.22;;;3.10;;
39454;SDS011;25155;41.890;23.446;2023-06-10T11:31:46;4.63;;;2.90;;
39454;SDS011;25155;41.890;23.446;2023-06-10T11:34:21;4.50;;;3.15;;
39454;SDS011;25155;41.890;23.446;2023-06-10T11:36:50;4.40;;;2.50;;
39454;SDS011;25155;41.890;23.446;2023-06-10T11:39:20;3.80;;;2.70;;
39454;SDS011;25155;41.890;23.446;2023-06-10T11:41:49;4.25;;;2.80;;
39454;SDS011;25155;41.890;23.446;2023-06-10T11:44:19;5.20;;;3.00;;
39454;SDS011;25155;41.890;23.446;2023-06-10T11:46:47;5.07;;;2.85;;
39454;SDS011;25155;41.890;23.446;2023-06-10T11:49:15;4.45;;;2.83;;
39454;SDS011;25155;41.890;23.446;2023-06-10T11:51:42;4.40;;;2.67;;
39454;SDS011;25155;41.890;23.446;2023-06-10T11:54:14;4.38;;;2.97;;
39454;SDS011;25155;41.890;23.446;2023-06-10T11:56:42;4.43;;;2.90;;
39454;SDS011;25155;41.890;23.446;2023-06-10T11:59:09;5.28;;;3.22;;
39454;SDS011;25155;41.890;23.446;2023-06-10T12:01:42;6.22;;;3.20;;
39454;SDS011;25155;41.890;23.446;2023-06-10T12:04:14;4.30;;;2.70;;
39454;SDS011;25155;41.890;23.446;2023-06-10T12:06:45;4.45;;;2.53;;
39454;SDS011;25155;41.890;23.446;2023-06-10T12:09:17;4.13;;;2.92;;
39454;SDS011;25155;41.890;23.446;2023-06-10T12:11:45;4.28;;;2.60;;
39454;SDS011;25155;41.890;23.446;2023-06-10T12:14:15;3.88;;;2.28;;
39454;SDS011;25155;41.890;23.446;2023-06-10T12:16:49;6.00;;;3.00;;
39454;SDS011;25155;41.890;23.446;2023-06-10T12:19:16;3.83;;;2.60;;
39454;SDS011;25155;41.890;23.446;2023-06-10T12:21:43;3.95;;;2.63;;
39454;SDS011;25155;41.890;23.446;2023-06-10T12:24:11;3.70;;;2.67;;
39454;SDS011;25155;41.890;23.446;2023-06-10T12:26:40;4.18;;;3.00;;
39454;SDS011;25155;41.890;23.446;2023-06-10T12:29:15;5.07;;;3.13;;
39454;SDS011;25155;41.890;23.446;2023-06-10T12:31:58;4.53;;;3.20;;
39454;SDS011;25155;41.890;23.446;2023-06-10T12:34:28;4.32;;;3.00;;
39454;SDS011;25155;41.890;23.446;2023-06-10T12:36:56;4.55;;;2.95;;
39454;SDS011;25155;41.890;23.446;2023-06-10T12:39:24;5.75;;;3.35;;
39454;SDS011;25155;41.890;23.446;2023-06-10T12:41:51;4.85;;;2.97;;
39454;SDS011;25155;41.890;23.446;2023-06-10T12:44:19;4.97;;;3.35;;
39454;SDS011;25155;41.890;23.446;2023-06-10T12:46:55;4.65;;;3.20;;
39454;SDS011;25155;41.890;23.446;2023-06-10T12:49:24;4.43;;;2.70;;
39454;SDS011;25155;41.890;23.446;2023-06-10T12:51:51;4.72;;;3.30;;
39454;SDS011;25155;41.890;23.446;2023-06-10T12:54:19;3.65;;;2.70;;
39454;SDS011;25155;41.890;23.446;2023-06-10T12:56:46;4.10;;;2.90;;
39454;SDS011;25155;41.890;23.446;2023-06-10T12:59:13;4.90;;;2.90;;
39454;SDS011;25155;41.890;23.446;2023-06-10T13:01:40;4.15;;;2.97;;
39454;SDS011;25155;41.890;23.446;2023-06-10T13:04:07;5.00;;;2.97;;
39454;SDS011;25155;41.890;23.446;2023-06-10T13:06:36;3.80;;;2.80;;
39454;SDS011;25155;41.890;23.446;2023-06-10T13:09:05;3.78;;;2.72;;
39454;SDS011;25155;41.890;23.446;2023-06-10T13:11:33;3.80;;;2.65;;
39454;SDS011;25155;41.890;23.446;2023-06-10T13:14:01;4.28;;;2.92;;
39454;SDS011;25155;41.890;23.446;2023-06-10T13:16:30;4.18;;;2.80;;
39454;SDS011;25155;41.890;23.446;2023-06-10T13:18:58;3.75;;;2.60;;
39454;SDS011;25155;41.890;23.446;2023-06-10T13:21:26;4.20;;;2.88;;
39454;SDS011;25155;41.890;23.446;2023-06-10T13:23:54;4.13;;;2.88;;
39454;SDS011;25155;41.890;23.446;2023-06-10T13:26:21;3.92;;;2.58;;
39454;SDS011;25155;41.890;23.446;2023-06-10T13:28:48;3.70;;;2.60;;
39454;SDS011;25155;41.890;23.446;2023-06-10T13:31:16;3.55;;;2.40;;
39454;SDS011;25155;41.890;23.446;2023-06-10T13:33:43;3.47;;;2.60;;
39454;SDS011;25155;41.890;23.446;2023-06-10T13:36:10;4.25;;;2.70;;
39454;SDS011;25155;41.890;23.446;2023-06-10T13:38:37;4.10;;;2.55;;
39454;SDS011;25155;41.890;23.446;2023-06-10T13:41:06;4.30;;;2.63;;
39454;SDS011;25155;41.890;23.446;2023-06-10T13:43:33;3.60;;;2.45;;
39454;SDS011;25155;41.890;23.446;2023-06-10T13:46:00;3.78;;;2.70;;
39454;SDS011;25155;41.890;23.446;2023-06-10T13:48:27;5.25;;;2.88;;
39454;SDS011;25155;41.890;23.446;2023-06-10T13:50:54;3.38;;;2.40;;
39454;SDS011;25155;41.890;23.446;2023-06-10T13:53:21;3.88;;;2.50;;
39454;SDS011;25155;41.890;23.446;2023-06-10T13:55:48;3.97;;;2.47;;
39454;SDS011;25155;41.890;23.446;2023-06-10T13:58:17;4.13;;;2.60;;
39454;SDS011;25155;41.890;23.446;2023-06-10T14:00:44;3.70;;;2.40;;
39454;SDS011;25155;41.890;23.446;2023-06-10T14:03:12;3.95;;;2.45;;
39454;SDS011;25155;41.890;23.446;2023-06-10T14:05:39;3.85;;;2.55;;
39454;SDS011;25155;41.890;23.446;2023-06-10T14:08:07;4.22;;;2.92;;
39454;SDS011;25155;41.890;23.446;2023-06-10T14:10:34;4.35;;;3.28;;
39454;SDS011;25155;41.890;23.446;2023-06-10T14:13:01;4.25;;;2.80;;
39454;SDS011;25155;41.890;23.446;2023-06-10T14:15:30;3.53;;;2.65;;
39454;SDS011;25155;41.890;23.446;2023-06-10T14:17:57;3.53;;;2.45;;
39454;SDS011;25155;41.890;23.446;2023-06-10T14:20:24;3.58;;;2.50;;
39454;SDS011;25155;41.890;23.446;2023-06-10T14:22:55;3.70;;;2.70;;
39454;SDS011;25155;41.890;23.446;2023-06-10T14:25:22;3.60;;;2.30;;
39454;SDS011;25155;41.890;23.446;2023-06-10T14:27:49;3.80;;;2.40;;
39454;SDS011;25155;41.890;23.446;2023-06-10T14:30:16;4.28;;;2.90;;
39454;SDS011;25155;41.890;23.446;2023-06-10T14:32:45;3.78;;;2.67;;
39454;SDS011;25155;41.890;23.446;2023-06-10T14:35:12;3.67;;;2.40;;
39454;SDS011;25155;41.890;23.446;2023-06-10T14:37:39;3.50;;;2.30;;
39454;SDS011;25155;41.890;23.446;2023-06-10T14:40:07;3.50;;;2.50;;
39454;SDS011;25155;41.890;23.446;2023-06-10T14:42:34;3.85;;;2.40;;
39454;SDS011;25155;41.890;23.446;2023-06-10T14:45:01;4.65;;;2.90;;
39454;SDS011;25155;41.890;23.446;2023-06-10T14:47:29;3.97;;;2.50;;
39454;SDS011;25155;41.890;23.446;2023-06-10T14:49:58;3.90;;;2.40;;
39454;SDS011;25155;41.890;23.446;2023-06-10T14:52:25;3.22;;;2.33;;
39454;SDS011;25155;41.890;23.446;2023-06-10T14:54:52;3.17;;;2.10;;